Time,TemperatureF,DewpointF,PressureIn,WindDirection,WindDirectionDegrees,WindSpeedMPH,WindSpeedGustMPH,Humidity,HourlyPrecipIn,Conditions,Clouds,dailyrainin,SolarRadiationWatts/m^2,SoftwareType,DateUTC
2013-06-21 00:09:00,58.0,44.0,29.56,East,90,3.0,10.0,60,0.00,,,0.00,0,weatherlink.com 1.10,2013-06-21 06:09:00,
2013-06-21 00:24:00,57.6,44.0,29.56,SSE,165,3.0,10.0,60,0.00,,,0.00,0,weatherlink.com 1.10,2013-06-21 06:24:00,
2013-06-21 00:39:00,57.1,44.0,29.56,SE,125,3.0,9.0,61,0.00,,,0.00,0,weatherlink.com 1.10,2013-06-21 06:39:00,
2013-06-21 00:54:00,56.8,43.0,29.56,SSW,194,2.0,10.0,61,0.00,,,0.00,0,weatherlink.com 1.10,2013-06-21 06:54:00,
2013-06-21 01:09:00,56.4,43.0,29.56,ESE,104,4.0,13.0,62,0.00,,,0.00,0,weatherlink.com 1.10,2013-06-21 07:09:00,
2013-06-21 01:24:00,56.0,43.0,29.56,SE,132,2.0,8.0,62,0.00,,,0.00,0,weatherlink.com 1.10,2013-06-21 07:24:00,
2013-06-21 01:39:00,55.7,43.0,29.57,WSW,247,1.0,7.0,63,0.00,,,0.00,0,weatherlink.com 1.10,2013-06-21 07:39:00,
2013-06-21 01:54:00,55.5,43.0,29.56,SE,132,3.0,11.0,63,0.00,,,0.00,0,weatherlink.com 1.10,2013-06-21 07:54:00,
2013-06-21 02:09:00,55.0,43.0,29.56,East,82,1.0,9.0,64,0.00,,,0.00,0,weatherlink.com 1.10,2013-06-21 08:09:00,
2013-06-21 02:24:00,55.0,39.0,29.56,ESE,108,2.0,6.0,56,0.00,,,0.00,0,weatherlink.com 1.10,2013-06-21 08:24:00,
2013-06-21 02:39:00,54.5,39.0,29.56,North,360,0.0,2.0,56,0.00,,,0.00,0,weatherlink.com 1.10,2013-06-21 08:39:00,
2013-06-21 02:54:00,52.5,38.0,29.56,North,360,0.0,0.0,58,0.00,,,0.00,0,weatherlink.com 1.10,2013-06-21 08:54:00,
2013-06-21 03:09:00,51.0,37.0,29.56,North,360,0.0,0.0,59,0.00,,,0.00,0,weatherlink.com 1.10,2013-06-21 09:09:00,
2013-06-21 03:24:00,49.9,36.0,29.57,North,360,0.0,0.0,60,0.00,,,0.00,0,weatherlink.com 1.10,2013-06-21 09:24:00,
2013-06-21 03:39:00,49.5,34.0,29.57,North,360,0.0,0.0,56,0.00,,,0.00,0,weatherlink.com 1.10,2013-06-21 09:39:00,
2013-06-21 03:54:00,49.4,32.0,29.57,North,360,0.0,0.0,52,0.00,,,0.00,0,weatherlink.com 1.10,2013-06-21 09:54:00,
2013-06-21 04:09:00,49.5,31.0,29.57,North,360,0.0,0.0,49,0.00,,,0.00,0,weatherlink.com 1.10,2013-06-21 10:09:00,
2013-06-21 04:25:00,49.9,31.0,29.58,North,360,0.0,0.0,48,0.00,,,0.00,0,weatherlink.com 1.10,2013-06-21 10:25:00,
2013-06-21 04:40:00,50.4,30.0,29.59,North,360,0.0,1.0,46,0.00,,,0.00,0,weatherlink.com 1.10,2013-06-21 10:40:00,
2013-06-21 04:55:00,49.8,31.0,29.59,North,360,0.0,0.0,48,0.00,,,0.00,0,weatherlink.com 1.10,2013-06-21 10:55:00,
2013-06-21 05:10:00,48.7,34.0,29.60,North,360,0.0,0.0,57,0.00,,,0.00,0,weatherlink.com 1.10,2013-06-21 11:10:00,
2013-06-21 05:25:00,50.8,31.0,29.61,North,360,0.0,1.0,47,0.00,,,0.00,0,weatherlink.com 1.10,2013-06-21 11:25:00,
2013-06-21 05:40:00,49.4,30.0,29.61,North,360,0.0,1.0,48,0.00,,,0.00,0,weatherlink.com 1.10,2013-06-21 11:40:00,
2013-06-21 05:55:00,49.5,30.0,29.62,North,360,0.0,0.0,48,0.00,,,0.00,7,weatherlink.com 1.10,2013-06-21 11:55:00,
2013-06-21 06:10:00,49.2,30.0,29.62,North,360,0.0,1.0,47,0.00,,,0.00,12,weatherlink.com 1.10,2013-06-21 12:10:00,
2013-06-21 06:25:00,48.9,29.0,29.63,North,360,0.0,0.0,47,0.00,,,0.00,19,weatherlink.com 1.10,2013-06-21 12:25:00,
2013-06-21 06:40:00,48.7,29.0,29.64,North,360,0.0,0.0,47,0.00,,,0.00,21,weatherlink.com 1.10,2013-06-21 12:40:00,
2013-06-21 06:55:00,49.0,30.0,29.64,North,360,0.0,0.0,48,0.00,,,0.00,23,weatherlink.com 1.10,2013-06-21 12:55:00,
2013-06-21 07:10:00,50.7,30.0,29.65,North,360,0.0,0.0,46,0.00,,,0.00,32,weatherlink.com 1.10,2013-06-21 13:10:00,
2013-06-21 07:25:00,53.8,27.0,29.64,North,360,1.0,2.0,36,0.00,,,0.00,35,weatherlink.com 1.10,2013-06-21 13:25:00,
2013-06-21 07:40:00,55.5,24.0,29.65,West,265,0.0,1.0,30,0.00,,,0.00,40,weatherlink.com 1.10,2013-06-21 13:40:00,
2013-06-21 07:55:00,56.4,26.0,29.65,West,276,0.0,3.0,31,0.00,,,0.00,44,weatherlink.com 1.10,2013-06-21 13:55:00,
2013-06-21 08:10:00,57.5,24.0,29.65,West,271,0.0,3.0,28,0.00,,,0.00,49,weatherlink.com 1.10,2013-06-21 14:10:00,
2013-06-21 08:25:00,58.3,22.0,29.65,West,264,4.0,4.0,25,0.00,,,0.00,53,weatherlink.com 1.10,2013-06-21 14:25:00,
2013-06-21 08:40:00,59.8,21.0,29.65,SW,225,3.0,7.0,22,0.00,,,0.00,56,weatherlink.com 1.10,2013-06-21 14:40:00,
2013-06-21 08:55:00,60.9,18.0,29.65,West,271,4.0,7.0,19,0.00,,,0.00,163,weatherlink.com 1.10,2013-06-21 14:55:00,
2013-06-21 09:25:00,62.7,17.0,29.65,NW,308,4.0,7.0,17,0.00,,,0.00,668,weatherlink.com 1.10,2013-06-21 15:25:00,
2013-06-21 09:40:00,64.2,15.0,29.65,WSW,240,4.0,5.0,15,0.00,,,0.00,715,weatherlink.com 1.10,2013-06-21 15:40:00,
2013-06-21 09:56:00,64.3,17.0,29.65,WSW,253,2.0,6.0,16,0.00,,,0.00,759,weatherlink.com 1.10,2013-06-21 15:56:00,
2013-06-21 10:11:00,64.9,16.0,29.65,WNW,302,3.0,7.0,15,0.00,,,0.00,802,weatherlink.com 1.10,2013-06-21 16:11:00,
2013-06-21 10:26:00,66.3,19.0,29.64,West,277,4.0,8.0,16,0.00,,,0.00,842,weatherlink.com 1.10,2013-06-21 16:26:00,
2013-06-21 10:41:00,67.0,16.0,29.63,SW,224,3.0,6.0,14,0.00,,,0.00,877,weatherlink.com 1.10,2013-06-21 16:41:00,
2013-06-21 10:56:00,68.6,17.0,29.63,WSW,247,3.0,7.0,14,0.00,,,0.00,912,weatherlink.com 1.10,2013-06-21 16:56:00,
2013-06-21 11:26:00,70.6,15.0,29.62,West,275,3.0,7.0,12,0.00,,,0.00,969,weatherlink.com 1.10,2013-06-21 17:26:00,
2013-06-21 12:26:00,75.5,15.0,29.61,WSW,257,2.0,7.0,10,0.00,,,0.00,1048,weatherlink.com 1.10,2013-06-21 18:26:00,
2013-06-21 12:41:00,74.0,14.0,29.61,SW,235,5.0,8.0,10,0.00,,,0.00,1063,weatherlink.com 1.10,2013-06-21 18:41:00,
2013-06-21 12:56:00,75.5,10.0,29.60,WSW,247,4.0,11.0,8,0.00,,,0.00,1071,weatherlink.com 1.10,2013-06-21 18:56:00,
2013-06-21 13:26:00,76.2,13.0,29.59,West,269,2.0,6.0,9,0.00,,,0.00,1072,weatherlink.com 1.10,2013-06-21 19:26:00,
2013-06-21 13:41:00,77.0,16.0,29.59,West,279,5.0,8.0,10,0.00,,,0.00,1069,weatherlink.com 1.10,2013-06-21 19:41:00,
2013-06-21 13:56:00,76.7,11.0,29.58,West,274,2.0,10.0,8,0.00,,,0.00,1055,weatherlink.com 1.10,2013-06-21 19:56:00,
2013-06-21 14:11:00,78.0,17.0,29.58,West,264,4.0,11.0,10,0.00,,,0.00,1039,weatherlink.com 1.10,2013-06-21 20:11:00,
2013-06-21 14:26:00,79.6,18.0,29.57,West,275,3.0,6.0,10,0.00,,,0.00,1027,weatherlink.com 1.10,2013-06-21 20:26:00,
2013-06-21 14:41:00,78.4,15.0,29.57,West,271,4.0,10.0,9,0.00,,,0.00,954,weatherlink.com 1.10,2013-06-21 20:41:00,
2013-06-21 14:57:00,78.5,15.0,29.57,WNW,299,6.0,10.0,9,0.00,,,0.00,951,weatherlink.com 1.10,2013-06-21 20:57:00,
2013-06-21 15:12:00,78.0,17.0,29.57,WSW,242,0.0,7.0,10,0.00,,,0.00,737,weatherlink.com 1.10,2013-06-21 21:12:00,
2013-06-21 15:27:00,80.2,16.0,29.56,NW,313,5.0,9.0,9,0.00,,,0.00,939,weatherlink.com 1.10,2013-06-21 21:27:00,
2013-06-21 15:42:00,81.3,14.0,29.55,WNW,298,2.0,6.0,8,0.00,,,0.00,905,weatherlink.com 1.10,2013-06-21 21:42:00,
2013-06-21 15:57:00,81.6,17.0,29.55,WSW,241,2.0,6.0,9,0.00,,,0.00,879,weatherlink.com 1.10,2013-06-21 21:57:00,
2013-06-21 16:12:00,79.1,10.0,29.55,West,274,2.0,8.0,7,0.00,,,0.00,837,weatherlink.com 1.10,2013-06-21 22:12:00,
2013-06-21 16:27:00,79.2,10.0,29.54,WNW,297,4.0,9.0,7,0.00,,,0.00,782,weatherlink.com 1.10,2013-06-21 22:27:00,
2013-06-21 16:42:00,78.0,9.0,29.54,West,261,3.0,7.0,7,0.00,,,0.00,424,weatherlink.com 1.10,2013-06-21 22:42:00,
2013-06-21 16:57:00,76.2,13.0,29.55,WNW,290,3.0,8.0,9,0.00,,,0.00,357,weatherlink.com 1.10,2013-06-21 22:57:00,
2013-06-21 17:12:00,75.6,10.0,29.55,WNW,298,5.0,10.0,8,0.00,,,0.00,183,weatherlink.com 1.10,2013-06-21 23:12:00,
2013-06-21 17:27:00,73.4,11.0,29.55,WSW,251,3.0,9.0,9,0.00,,,0.00,199,weatherlink.com 1.10,2013-06-21 23:27:00,
2013-06-21 17:42:00,73.5,9.0,29.54,WSW,248,0.0,6.0,8,0.00,,,0.00,155,weatherlink.com 1.10,2013-06-21 23:42:00,
2013-06-21 17:57:00,72.6,10.0,29.54,NW,304,1.0,5.0,9,0.00,,,0.00,158,weatherlink.com 1.10,2013-06-21 23:57:00,
2013-06-21 18:12:00,72.4,10.0,29.54,WNW,284,3.0,6.0,9,0.00,,,0.00,144,weatherlink.com 1.10,2013-06-22 00:12:00,
2013-06-21 18:27:00,71.8,10.0,29.53,West,263,0.0,5.0,9,0.00,,,0.00,113,weatherlink.com 1.10,2013-06-22 00:27:00,
2013-06-21 18:42:00,71.4,9.0,29.54,NW,318,0.0,8.0,9,0.00,,,0.00,84,weatherlink.com 1.10,2013-06-22 00:42:00,
2013-06-21 18:57:00,73.0,11.0,29.54,SW,235,1.0,5.0,9,0.00,,,0.00,91,weatherlink.com 1.10,2013-06-22 00:57:00,
2013-06-21 19:12:00,71.3,9.0,29.54,West,271,4.0,6.0,9,0.00,,,0.00,76,weatherlink.com 1.10,2013-06-22 01:12:00,
2013-06-21 19:27:00,72.2,10.0,29.54,SW,229,1.0,4.0,9,0.00,,,0.00,193,weatherlink.com 1.10,2013-06-22 01:27:00,
2013-06-21 19:42:00,71.9,10.0,29.54,WSW,250,2.0,8.0,9,0.00,,,0.00,65,weatherlink.com 1.10,2013-06-22 01:42:00,
2013-06-21 19:57:00,70.9,9.0,29.54,WSW,242,3.0,7.0,9,0.00,,,0.00,42,weatherlink.com 1.10,2013-06-22 01:57:00,
2013-06-21 20:12:00,69.5,10.0,29.55,WSW,240,0.0,4.0,10,0.00,,,0.00,16,weatherlink.com 1.10,2013-06-22 02:12:00,
2013-06-21 20:27:00,68.1,9.0,29.56,West,269,0.0,2.0,10,0.00,,,0.00,0,weatherlink.com 1.10,2013-06-22 02:27:00,
2013-06-21 20:42:00,65.6,9.0,29.56,SE,130,1.0,2.0,11,0.00,,,0.00,0,weatherlink.com 1.10,2013-06-22 02:42:00,
2013-06-21 20:57:00,64.5,11.0,29.56,SE,136,0.0,1.0,12,0.00,,,0.00,0,weatherlink.com 1.10,2013-06-22 02:57:00,
2013-06-21 21:12:00,63.9,10.0,29.56,ESE,107,0.0,2.0,12,0.00,,,0.00,0,weatherlink.com 1.10,2013-06-22 03:12:00,
2013-06-21 21:27:00,64.3,10.0,29.56,South,186,1.0,3.0,12,0.00,,,0.00,0,weatherlink.com 1.10,2013-06-22 03:27:00,
2013-06-21 21:42:00,64.3,8.0,29.57,SE,142,0.0,2.0,11,0.00,,,0.00,0,weatherlink.com 1.10,2013-06-22 03:42:00,
2013-06-21 21:57:00,63.8,10.0,29.57,ENE,77,0.0,3.0,12,0.00,,,0.00,0,weatherlink.com 1.10,2013-06-22 03:57:00,
2013-06-21 22:12:00,64.4,11.0,29.58,ESE,123,1.0,4.0,12,0.00,,,0.00,0,weatherlink.com 1.10,2013-06-22 04:12:00,
2013-06-21 22:27:00,61.7,10.0,29.59,ESE,123,0.0,2.0,13,0.00,,,0.00,0,weatherlink.com 1.10,2013-06-22 04:27:00,
2013-06-21 22:42:00,61.2,10.0,29.59,ESE,107,0.0,1.0,13,0.00,,,0.00,0,weatherlink.com 1.10,2013-06-22 04:42:00,
2013-06-21 22:57:00,60.5,9.0,29.59,ESE,107,0.0,1.0,13,0.00,,,0.00,0,weatherlink.com 1.10,2013-06-22 04:57:00,
2013-06-21 23:12:00,60.1,9.0,29.59,ESE,106,0.0,1.0,13,0.00,,,0.00,0,weatherlink.com 1.10,2013-06-22 05:12:00,
2013-06-21 23:27:00,59.3,10.0,29.59,ESE,103,0.0,1.0,14,0.00,,,0.00,0,weatherlink.com 1.10,2013-06-22 05:27:00,
2013-06-21 23:42:00,58.7,9.0,29.59,ESE,103,0.0,0.0,14,0.00,,,0.00,0,weatherlink.com 1.10,2013-06-22 05:42:00,
2013-06-21 23:57:00,57.5,10.0,29.60,ESE,103,0.0,0.0,15,0.00,,,0.00,0,weatherlink.com 1.10,2013-06-22 05:57:00,